createdAt,value
2018-10-17T00:02:08.228Z,64.50
2018-10-17T00:04:37.320Z,64.60
2018-10-17T00:07:06.411Z,64.80
2018-10-17T00:09:35.516Z,64.80
2018-10-17T00:12:05.460Z,64.80
2018-10-17T00:14:35.533Z,64.90
2018-10-17T00:17:06.718Z,64.80
2018-10-17T00:19:35.855Z,65.00
2018-10-17T00:22:05.178Z,64.80
2018-10-17T00:24:35.105Z,65.00
2018-10-17T00:27:04.198Z,64.80
2018-10-17T00:29:33.339Z,65.10
2018-10-17T00:32:02.475Z,65.30
2018-10-17T00:34:31.577Z,65.00
2018-10-17T00:37:00.663Z,65.20
2018-10-17T00:39:29.682Z,65.50
2018-10-17T00:41:58.880Z,65.70
2018-10-17T00:44:27.951Z,65.80
2018-10-17T00:46:57.014Z,65.90
2018-10-17T00:49:26.024Z,66.10
2018-10-17T00:51:55.041Z,66.20
2018-10-17T00:54:24.082Z,66.50
2018-10-17T00:56:53.173Z,66.70
2018-10-17T00:59:22.244Z,66.80
2018-10-17T01:01:51.717Z,67.10
2018-10-17T01:04:21.545Z,68.40
2018-10-17T01:06:51.896Z,67.40
2018-10-17T01:09:21.897Z,67.50
2018-10-17T01:11:51.626Z,67.50
2018-10-17T01:14:20.828Z,67.50
2018-10-17T01:16:50.328Z,67.30
2018-10-17T01:19:19.546Z,67.30
2018-10-17T01:21:48.647Z,67.10
2018-10-17T01:24:17.705Z,67.10
2018-10-17T01:26:46.832Z,67.10
2018-10-17T01:29:16.038Z,67.20
2018-10-17T01:31:46.381Z,67.40
2018-10-17T01:34:16.012Z,67.50
2018-10-17T01:36:45.447Z,67.70
2018-10-17T01:39:14.822Z,67.60
2018-10-17T01:41:44.052Z,67.60
2018-10-17T01:44:13.348Z,67.60
2018-10-17T01:46:42.569Z,67.60
2018-10-17T01:49:11.736Z,67.60
2018-10-17T01:51:40.834Z,68.20
2018-10-17T01:54:10.206Z,67.70
2018-10-17T01:56:39.544Z,67.80
2018-10-17T01:59:08.828Z,67.80
2018-10-17T02:01:38.021Z,67.80
2018-10-17T02:04:07.817Z,68.10
2018-10-17T02:06:36.988Z,68.10
2018-10-17T02:09:08.980Z,67.90
2018-10-17T02:11:38.733Z,67.80
2018-10-17T02:14:08.635Z,67.80
2018-10-17T02:16:37.773Z,68.00
2018-10-17T02:19:07.835Z,68.30
2018-10-17T02:21:36.952Z,68.50
2018-10-17T02:24:07.644Z,68.60
2018-10-17T02:26:36.943Z,68.80
2018-10-17T02:29:06.692Z,68.90
2018-10-17T02:31:36.348Z,69.10
2018-10-17T02:34:05.591Z,69.30
2018-10-17T02:36:34.796Z,69.40
2018-10-17T02:39:05.244Z,69.60
2018-10-17T02:41:34.336Z,69.50
2018-10-17T02:44:04.227Z,70.30
2018-10-17T02:46:33.304Z,69.70
2018-10-17T02:49:02.666Z,69.60
2018-10-17T02:51:31.823Z,69.60
2018-10-17T02:54:01.321Z,69.60
2018-10-17T02:56:30.486Z,69.60
2018-10-17T02:58:59.640Z,69.60
2018-10-17T03:01:29.142Z,69.80
2018-10-17T03:03:59.199Z,70.00
2018-10-17T03:06:29.166Z,69.80
2018-10-17T03:08:58.642Z,69.80
2018-10-17T03:11:27.990Z,70.00
2018-10-17T03:13:57.308Z,70.10
2018-10-17T03:16:26.381Z,70.30
2018-10-17T03:18:55.848Z,70.30
2018-10-17T03:21:24.867Z,70.90
2018-10-17T03:23:54.059Z,70.90
2018-10-17T03:26:23.672Z,71.10
2018-10-17T03:28:53.095Z,71.40
2018-10-17T03:31:22.564Z,71.50
2018-10-17T03:33:51.586Z,71.60
2018-10-17T03:36:21.259Z,71.70
2018-10-17T03:38:50.941Z,71.90
2018-10-17T03:41:20.101Z,72.10
2018-10-17T03:43:49.375Z,72.10
2018-10-17T03:46:18.633Z,72.30
2018-10-17T03:48:47.893Z,72.30
2018-10-17T03:51:18.341Z,72.40
2018-10-17T03:53:47.534Z,72.40
2018-10-17T03:56:16.764Z,73.20
2018-10-17T03:58:47.668Z,71.90
2018-10-17T04:01:17.314Z,71.60
2018-10-17T04:03:46.481Z,71.70
2018-10-17T04:06:16.953Z,72.40
2018-10-17T04:08:46.840Z,72.20
2018-10-17T04:11:16.856Z,72.80
2018-10-17T04:13:45.975Z,73.10
2018-10-17T04:16:15.229Z,73.50
2018-10-17T04:18:44.503Z,73.50
2018-10-17T04:21:13.770Z,73.50
2018-10-17T04:23:43.379Z,73.60
2018-10-17T04:26:12.681Z,73.60
2018-10-17T04:28:41.913Z,74.00
2018-10-17T04:31:11.881Z,74.20
2018-10-17T04:33:41.374Z,74.30
2018-10-17T04:36:10.857Z,74.30
2018-10-17T04:38:40.286Z,73.50
2018-10-17T04:41:09.767Z,74.20
2018-10-17T04:43:40.024Z,74.20
2018-10-17T04:46:09.155Z,74.10
2018-10-17T04:48:38.840Z,73.90
2018-10-17T04:51:09.688Z,73.70
2018-10-17T04:53:38.935Z,73.70
2018-10-17T04:56:09.047Z,73.40
2018-10-17T04:58:38.572Z,73.30
2018-10-17T05:01:08.325Z,73.10
2018-10-17T05:03:37.569Z,72.80
2018-10-17T05:06:06.885Z,72.60
2018-10-17T05:08:36.108Z,72.40
2018-10-17T05:11:06.019Z,72.40
2018-10-17T05:13:35.365Z,72.10
2018-10-17T05:16:04.706Z,72.10
2018-10-17T05:18:34.226Z,72.00
2018-10-17T05:21:03.501Z,72.10
2018-10-17T05:23:33.386Z,72.10
2018-10-17T05:26:03.299Z,71.90
2018-10-17T05:28:34.235Z,71.90
2018-10-17T05:31:04.955Z,71.90
2018-10-17T05:33:34.254Z,71.80
2018-10-17T05:36:03.570Z,71.70
2018-10-17T05:38:32.884Z,71.80
2018-10-17T05:41:02.093Z,71.80
2018-10-17T05:43:31.422Z,71.60
2018-10-17T05:46:00.675Z,71.80
2018-10-17T05:48:29.823Z,71.70
2018-10-17T05:50:59.171Z,71.60
2018-10-17T05:53:28.284Z,71.60
2018-10-17T05:55:57.579Z,71.90
2018-10-17T05:58:27.199Z,72.20
2018-10-17T06:00:57.346Z,73.10
2018-10-17T06:03:26.841Z,72.30
2018-10-17T06:05:56.464Z,72.40
2018-10-17T06:08:26.519Z,71.70
2018-10-17T06:10:55.930Z,72.60
2018-10-17T06:13:25.457Z,73.10
2018-10-17T06:15:54.641Z,73.30
2018-10-17T06:18:24.159Z,73.70
2018-10-17T06:20:53.562Z,74.00
2018-10-17T06:23:22.802Z,74.10
2018-10-17T06:25:52.637Z,74.20
2018-10-17T06:28:22.026Z,74.30
2018-10-17T06:30:51.304Z,73.90
2018-10-17T06:33:20.600Z,74.00
2018-10-17T06:35:50.456Z,73.90
2018-10-17T06:38:19.914Z,73.80
2018-10-17T06:40:49.185Z,73.90
2018-10-17T06:43:18.299Z,73.80
2018-10-17T06:45:47.648Z,73.80
2018-10-17T06:48:16.968Z,73.60
2018-10-17T06:50:46.233Z,73.60
2018-10-17T06:53:15.592Z,73.60
2018-10-17T06:55:44.984Z,73.50
2018-10-17T06:58:15.070Z,73.70
2018-10-17T07:00:44.338Z,73.70
2018-10-17T07:03:14.200Z,73.90
2018-10-17T07:10:40.835Z,74.10
2018-10-17T07:13:10.025Z,73.80
2018-10-17T07:15:39.679Z,73.70
2018-10-17T07:18:08.823Z,73.40
2018-10-17T07:20:39.483Z,72.90
2018-10-17T07:23:08.689Z,72.20
2018-10-17T07:25:37.789Z,71.60
2018-10-17T07:28:07.204Z,71.30
2018-10-17T07:30:38.135Z,71.00
2018-10-17T07:33:07.344Z,70.60
2018-10-17T07:35:36.627Z,70.40
2018-10-17T07:38:05.979Z,70.20
2018-10-17T07:40:35.269Z,69.70
2018-10-17T07:43:04.733Z,69.30
2018-10-17T07:45:34.101Z,69.10
2018-10-17T07:48:03.427Z,68.40
2018-10-17T07:50:32.697Z,67.00
2018-10-17T07:53:01.842Z,66.30
2018-10-17T07:55:31.518Z,65.60
2018-10-17T07:58:01.268Z,65.00
2018-10-17T08:00:30.491Z,65.00
2018-10-17T08:03:01.136Z,65.40
2018-10-17T08:05:31.187Z,65.30
2018-10-17T08:08:00.324Z,64.60
2018-10-17T08:10:29.449Z,64.40
2018-10-17T08:12:58.719Z,64.00
2018-10-17T08:15:28.231Z,63.10
2018-10-17T08:17:57.532Z,62.30
2018-10-17T08:20:27.981Z,61.30
2018-10-17T08:22:57.361Z,61.00
2018-10-17T08:25:26.708Z,60.40
2018-10-17T08:27:55.955Z,60.50
2018-10-17T08:30:25.292Z,60.30
2018-10-17T08:32:54.744Z,60.20
2018-10-17T08:35:24.245Z,59.90
2018-10-17T08:37:53.751Z,59.60
2018-10-17T08:40:22.680Z,59.20
2018-10-17T08:42:52.050Z,59.30
2018-10-17T08:45:21.341Z,58.60
2018-10-17T08:47:50.555Z,58.60
2018-10-17T08:50:19.983Z,57.70
2018-10-17T08:52:49.265Z,57.20
2018-10-17T08:55:18.708Z,56.00
2018-10-17T08:57:48.282Z,55.00
2018-10-17T09:00:17.650Z,54.30
2018-10-17T09:02:47.343Z,53.70
2018-10-17T09:05:16.878Z,53.50
2018-10-17T09:07:46.326Z,53.90
2018-10-17T09:10:16.912Z,53.30
2018-10-17T09:12:46.263Z,52.90
2018-10-17T09:15:15.793Z,52.60
2018-10-17T09:17:45.158Z,52.20
2018-10-17T09:20:15.215Z,51.30
2018-10-17T09:22:44.258Z,51.00
2018-10-17T09:25:13.778Z,50.60
2018-10-17T09:27:43.610Z,50.40
2018-10-17T09:30:13.516Z,50.10
2018-10-17T09:32:43.041Z,48.90
2018-10-17T09:35:13.128Z,48.30
2018-10-17T09:37:42.949Z,48.10
2018-10-17T09:40:12.832Z,47.40
2018-10-17T09:42:42.513Z,46.60
2018-10-17T09:45:12.292Z,45.90
2018-10-17T09:47:41.755Z,45.30
2018-10-17T09:50:11.583Z,45.40
2018-10-17T09:52:41.652Z,45.90
2018-10-17T09:55:11.135Z,45.50
2018-10-17T09:57:40.380Z,45.80
2018-10-17T10:00:15.003Z,45.30
2018-10-17T10:02:44.094Z,43.70
2018-10-17T10:05:13.592Z,42.50
2018-10-17T10:07:43.241Z,42.80
2018-10-17T10:10:12.769Z,42.40
2018-10-17T10:12:42.497Z,43.20
2018-10-17T10:15:12.981Z,43.50
2018-10-17T10:17:42.663Z,43.80
2018-10-17T10:20:13.147Z,44.00
2018-10-17T10:22:42.433Z,44.30
2018-10-17T10:25:11.969Z,44.70
2018-10-17T10:27:41.388Z,45.00
2018-10-17T10:30:11.896Z,45.90
2018-10-17T10:32:41.287Z,45.10
2018-10-17T10:35:10.667Z,45.50
2018-10-17T10:37:40.674Z,46.40
2018-10-17T10:40:10.308Z,45.80
2018-10-17T10:42:39.595Z,45.90
2018-10-17T10:45:08.868Z,46.00
2018-10-17T10:47:38.206Z,46.20
2018-10-17T10:50:09.677Z,46.60
2018-10-17T10:52:39.407Z,46.60
2018-10-17T10:55:08.735Z,46.80
2018-10-17T10:57:38.018Z,46.70
2018-10-17T11:00:08.187Z,46.80
2018-10-17T11:02:37.680Z,46.80
2018-10-17T11:05:07.200Z,46.80
2018-10-17T11:07:36.546Z,47.00
2018-10-17T11:10:12.068Z,46.90
2018-10-17T11:12:42.573Z,46.90
2018-10-17T11:15:12.368Z,47.00
2018-10-17T11:17:42.362Z,47.10
2018-10-17T11:20:11.937Z,47.70
2018-10-17T11:22:41.389Z,47.30
2018-10-17T11:25:11.099Z,46.90
2018-10-17T11:27:40.265Z,47.10
2018-10-17T11:30:11.386Z,47.10
2018-10-17T11:32:41.052Z,46.60
2018-10-17T11:35:12.477Z,46.70
2018-10-17T11:37:42.809Z,46.60
2018-10-17T11:40:12.191Z,46.50
2018-10-17T11:42:41.740Z,46.70
2018-10-17T11:45:11.451Z,47.40
2018-10-17T11:47:41.815Z,47.70
2018-10-17T11:50:12.142Z,47.20
2018-10-17T11:52:41.568Z,47.30
2018-10-17T11:55:11.479Z,47.00
2018-10-17T11:57:40.725Z,47.10
2018-10-17T12:00:12.395Z,47.40
2018-10-17T12:02:41.927Z,47.60
2018-10-17T12:05:14.294Z,47.80
2018-10-17T12:07:43.943Z,48.10
2018-10-17T12:10:13.201Z,48.10
2018-10-17T12:12:42.932Z,48.40
2018-10-17T12:15:14.213Z,48.70
2018-10-17T12:20:20.874Z,48.60
2018-10-17T12:22:50.273Z,48.30
2018-10-17T12:25:20.096Z,48.30
2018-10-17T12:27:49.582Z,48.60
2018-10-17T12:30:19.217Z,48.40
2018-10-17T12:32:48.561Z,48.40
2018-10-17T12:35:17.879Z,49.10
2018-10-17T12:37:47.399Z,48.90
2018-10-17T12:40:16.953Z,49.20
2018-10-17T12:42:46.194Z,50.00
2018-10-17T12:45:15.711Z,49.20
2018-10-17T12:47:45.298Z,49.90
2018-10-17T12:50:14.656Z,49.30
2018-10-17T12:52:44.165Z,49.70
2018-10-17T12:55:14.204Z,49.60
2018-10-17T12:57:43.553Z,49.60
2018-10-17T13:00:12.983Z,49.40
2018-10-17T13:02:42.284Z,49.90
2018-10-17T13:05:11.828Z,49.90
2018-10-17T13:07:41.812Z,50.10
2018-10-17T13:10:12.129Z,50.10
2018-10-17T13:12:42.410Z,50.20
2018-10-17T13:15:14.240Z,50.40
2018-10-17T13:17:45.678Z,50.60
2018-10-17T13:20:15.606Z,51.20
2018-10-17T13:22:45.078Z,51.20
2018-10-17T13:25:14.676Z,50.40
2018-10-17T13:27:43.739Z,50.90
2018-10-17T13:30:13.096Z,51.70
2018-10-17T13:32:42.762Z,51.60
2018-10-17T13:35:12.549Z,51.80
2018-10-17T13:37:41.728Z,51.90
2018-10-17T13:40:11.913Z,52.20
2018-10-17T13:42:41.044Z,52.00
2018-10-17T13:45:10.373Z,52.10
2018-10-17T13:47:39.950Z,52.10
2018-10-17T13:50:09.175Z,52.20
2018-10-17T13:52:38.570Z,52.20
2018-10-17T13:55:08.546Z,52.30
2018-10-17T13:57:37.832Z,52.50
2018-10-17T14:00:11.037Z,52.60
2018-10-17T14:02:40.636Z,52.80
2018-10-17T14:05:10.269Z,53.00
2018-10-17T14:07:39.613Z,53.10
2018-10-17T14:10:09.055Z,53.20
2018-10-17T14:12:38.279Z,53.20
2018-10-17T14:15:07.486Z,53.40
2018-10-17T14:17:36.606Z,53.50
2018-10-17T14:20:05.826Z,53.70
2018-10-17T14:22:34.938Z,53.60
2018-10-17T14:25:04.235Z,53.80
2018-10-17T14:27:33.512Z,53.70
2018-10-17T14:30:03.082Z,53.70
2018-10-17T14:32:32.578Z,54.00
2018-10-17T14:35:01.938Z,53.90
2018-10-17T14:37:31.187Z,53.90
2018-10-17T14:40:00.672Z,53.50
2018-10-17T14:42:30.124Z,53.90
2018-10-17T14:44:59.594Z,54.00
2018-10-17T14:47:28.761Z,54.00
2018-10-17T14:49:57.852Z,54.10
2018-10-17T14:52:27.070Z,54.20
2018-10-17T14:54:56.351Z,54.30
2018-10-17T14:57:25.654Z,54.20
2018-10-17T14:59:55.082Z,54.40
2018-10-17T15:02:24.378Z,54.50
2018-10-17T15:05:00.311Z,54.60
2018-10-17T15:07:29.497Z,54.60
2018-10-17T15:09:58.745Z,54.80
2018-10-17T15:12:27.842Z,55.10
2018-10-17T15:14:57.009Z,55.00
2018-10-17T15:17:26.287Z,55.10
2018-10-17T15:19:56.437Z,55.20
2018-10-17T15:22:26.071Z,55.40
2018-10-17T15:24:55.337Z,55.30
2018-10-17T15:27:24.517Z,55.40
2018-10-17T15:29:53.900Z,55.40
2018-10-17T15:32:23.099Z,55.50
2018-10-17T15:34:52.213Z,55.70
2018-10-17T15:37:21.518Z,55.70
2018-10-17T15:39:50.659Z,55.80
2018-10-17T15:42:19.898Z,55.80
2018-10-17T15:44:49.161Z,55.90
2018-10-17T15:47:18.807Z,56.40
2018-10-17T15:49:48.153Z,56.10
2018-10-17T15:52:17.430Z,56.20
2018-10-17T15:54:46.764Z,56.40
2018-10-17T15:57:16.293Z,56.40
2018-10-17T15:59:45.547Z,56.50
2018-10-17T16:02:15.017Z,56.60
2018-10-17T16:04:44.485Z,56.90
2018-10-17T16:07:13.933Z,57.00
2018-10-17T16:09:43.259Z,57.10
2018-10-17T16:12:12.602Z,57.20
2018-10-17T16:14:41.960Z,57.40
2018-10-17T16:17:11.207Z,57.50
2018-10-17T16:19:40.449Z,57.60
2018-10-17T16:22:11.080Z,57.80
2018-10-17T16:24:40.275Z,58.00
2018-10-17T16:27:09.424Z,58.30
2018-10-17T16:29:38.911Z,58.50
2018-10-17T16:32:08.304Z,58.80
2018-10-17T16:34:38.094Z,59.00
2018-10-17T16:37:07.148Z,59.30
2018-10-17T16:39:36.263Z,59.30
2018-10-17T16:42:05.974Z,59.70
2018-10-17T16:44:35.092Z,59.90
2018-10-17T16:47:04.612Z,60.20
2018-10-17T16:49:33.930Z,60.50
2018-10-17T16:52:03.053Z,60.60
2018-10-17T16:54:32.472Z,60.80
2018-10-17T16:57:01.713Z,61.30
2018-10-17T16:59:30.983Z,61.50
2018-10-17T17:02:00.144Z,61.80
2018-10-17T17:04:29.423Z,61.90
2018-10-17T17:07:00.038Z,62.20
2018-10-17T17:09:29.201Z,62.30
2018-10-17T17:11:58.282Z,62.50
2018-10-17T17:14:27.565Z,63.10
2018-10-17T17:16:56.701Z,63.00
2018-10-17T17:19:26.593Z,63.30
2018-10-17T17:21:56.139Z,65.70
2018-10-17T17:24:25.368Z,64.60
2018-10-17T17:26:54.554Z,64.60
2018-10-17T17:29:23.736Z,64.30
2018-10-17T17:31:53.144Z,64.50
2018-10-17T17:34:22.603Z,64.60
2018-10-17T17:36:51.857Z,65.00
2018-10-17T17:39:21.285Z,65.00
2018-10-17T17:41:50.372Z,65.30
2018-10-17T17:44:19.673Z,65.40
2018-10-17T17:46:49.229Z,65.70
2018-10-17T17:49:18.647Z,65.70
2018-10-17T17:51:48.520Z,66.00
2018-10-17T17:54:18.271Z,66.20
2018-10-17T17:56:47.568Z,66.30
2018-10-17T18:02:00.259Z,66.60
2018-10-17T18:04:29.710Z,66.90
2018-10-17T18:06:59.440Z,67.10
2018-10-17T18:09:30.512Z,67.40
2018-10-17T18:12:01.210Z,67.70
2018-10-17T18:14:30.253Z,67.70
2018-10-17T18:16:59.555Z,68.00
2018-10-17T18:19:28.756Z,68.10
2018-10-17T18:21:58.518Z,68.30
2018-10-17T18:24:28.186Z,68.70
2018-10-17T18:26:57.373Z,68.80
2018-10-17T18:29:26.780Z,69.20
2018-10-17T18:31:56.878Z,69.40
2018-10-17T18:34:26.269Z,69.40
2018-10-17T18:36:55.421Z,69.70
2018-10-17T18:39:24.739Z,69.70
2018-10-17T18:41:54.225Z,69.90
2018-10-17T18:44:23.736Z,70.10
2018-10-17T18:46:53.221Z,70.30
2018-10-17T18:49:22.844Z,70.50
2018-10-17T18:51:52.580Z,70.80
2018-10-17T18:54:22.072Z,71.90
2018-10-17T18:56:51.607Z,71.10
2018-10-17T18:59:23.876Z,71.20
2018-10-17T19:01:53.967Z,71.60
2018-10-17T19:04:23.193Z,71.60
2018-10-17T19:06:52.549Z,71.80
2018-10-17T19:09:21.734Z,72.00
2018-10-17T19:11:50.967Z,72.10
2018-10-17T19:14:20.124Z,71.90
2018-10-17T19:16:49.237Z,72.10
2018-10-17T19:19:18.658Z,72.20
2018-10-17T19:21:47.878Z,72.30
2018-10-17T19:24:17.859Z,72.50
2018-10-17T19:26:47.133Z,72.50
2018-10-17T19:29:16.364Z,72.60
2018-10-17T19:31:46.051Z,72.90
2018-10-17T19:34:15.814Z,72.80
2018-10-17T19:36:45.414Z,73.00
2018-10-17T19:39:15.590Z,73.40
2018-10-17T19:41:45.537Z,73.00
2018-10-17T19:46:52.231Z,74.00
2018-10-17T19:49:22.281Z,73.40
2018-10-17T19:51:52.456Z,73.40
2018-10-17T19:54:21.733Z,73.40
2018-10-17T19:56:51.311Z,73.40
2018-10-17T19:59:21.681Z,73.50
2018-10-17T20:01:51.200Z,73.70
2018-10-17T20:04:20.845Z,73.90
2018-10-17T20:06:50.020Z,74.00
2018-10-17T20:09:19.369Z,74.10
2018-10-17T20:11:48.677Z,74.40
2018-10-17T20:14:18.233Z,74.30
2018-10-17T20:16:47.280Z,74.40
2018-10-17T20:19:16.691Z,74.50
2018-10-17T20:21:46.633Z,74.70
2018-10-17T20:24:15.945Z,74.90
2018-10-17T20:26:45.208Z,75.10
2018-10-17T20:29:14.934Z,75.30
2018-10-17T20:31:44.286Z,75.50
2018-10-17T20:34:14.883Z,75.60
2018-10-17T20:36:43.991Z,75.70
2018-10-17T20:39:14.708Z,75.70
2018-10-17T20:41:43.961Z,75.70
2018-10-17T20:44:14.258Z,75.80
2018-10-17T20:46:43.458Z,75.70
2018-10-17T20:49:12.726Z,75.80
2018-10-17T20:51:42.502Z,75.80
2018-10-17T20:54:11.698Z,75.80
2018-10-17T20:56:40.767Z,75.90
2018-10-17T20:59:09.832Z,76.00
2018-10-17T21:01:38.948Z,76.50
2018-10-17T21:04:08.061Z,76.30
2018-10-17T21:06:37.307Z,76.30
2018-10-17T21:09:11.389Z,76.40
2018-10-17T21:11:41.109Z,76.80
2018-10-17T21:14:11.476Z,76.90
2018-10-17T21:16:41.670Z,77.20
2018-10-17T21:19:10.958Z,77.30
2018-10-17T21:21:40.380Z,77.20
2018-10-17T21:24:09.994Z,77.40
2018-10-17T21:26:39.229Z,77.40
2018-10-17T21:29:08.296Z,77.20
2018-10-17T21:31:37.507Z,77.20
2018-10-17T21:34:06.768Z,77.40
2018-10-17T21:36:35.968Z,77.50
2018-10-17T21:39:08.987Z,77.60
2018-10-17T21:41:38.117Z,77.40
2018-10-17T21:44:08.331Z,77.60
2018-10-17T21:46:37.445Z,77.60
2018-10-17T21:49:08.020Z,77.70
2018-10-17T21:51:37.161Z,77.70
2018-10-17T21:54:06.705Z,77.70
2018-10-17T21:56:35.905Z,77.80
2018-10-17T21:59:05.640Z,77.90
2018-10-17T22:01:34.716Z,78.00
2018-10-17T22:04:04.092Z,78.30
2018-10-17T22:06:33.216Z,78.40
2018-10-17T22:09:02.331Z,78.60
2018-10-17T22:11:31.895Z,78.80
2018-10-17T22:14:01.392Z,78.80
2018-10-17T22:16:35.829Z,78.80
2018-10-17T22:19:05.198Z,78.40
2018-10-17T22:21:34.275Z,78.00
2018-10-17T22:24:03.368Z,78.20
2018-10-17T22:26:32.564Z,78.80
2018-10-17T22:29:01.860Z,78.60
2018-10-17T22:31:31.217Z,78.70
2018-10-17T22:34:01.128Z,78.90
2018-10-17T22:36:30.335Z,79.00
2018-10-17T22:38:59.456Z,79.20
2018-10-17T22:41:28.565Z,79.40
2018-10-17T22:43:57.651Z,80.60
2018-10-17T22:46:26.905Z,79.90
2018-10-17T22:48:55.993Z,80.20
2018-10-17T22:51:25.056Z,80.20
2018-10-17T22:53:54.132Z,80.30
2018-10-17T22:56:23.276Z,80.30
2018-10-17T22:58:52.618Z,80.10
2018-10-17T23:01:22.096Z,80.10
2018-10-17T23:03:51.216Z,80.30
2018-10-17T23:06:20.351Z,80.20
2018-10-17T23:08:49.398Z,81.00
2018-10-17T23:11:18.541Z,80.20
2018-10-17T23:13:47.662Z,80.20
2018-10-17T23:16:16.771Z,80.30
2018-10-17T23:18:45.901Z,80.00
2018-10-17T23:21:14.997Z,79.90
2018-10-17T23:23:44.203Z,80.20
2018-10-17T23:26:13.403Z,80.20
2018-10-17T23:28:42.559Z,79.90
2018-10-17T23:31:11.712Z,80.20
2018-10-17T23:33:41.212Z,80.40
2018-10-17T23:36:11.646Z,81.00
2018-10-17T23:38:40.737Z,80.40
2018-10-17T23:41:10.851Z,80.40
2018-10-17T23:43:40.785Z,80.30
2018-10-17T23:46:10.818Z,81.20
2018-10-17T23:48:41.202Z,81.10
2018-10-17T23:51:11.063Z,81.50
2018-10-17T23:53:41.104Z,81.90
2018-10-17T23:56:10.387Z,82.00
